Time;durP1;ratioP1;P1;durP2;ratioP2;P2;SDS_P1;SDS_P2;PMS_P1;PMS_P2;Temp;Humidity;BMP_temperature;BMP_pressure;BME280_temperature;BME280_humidity;BME280_pressure;Samples;Min_cycle;Max_cycle;Signal;HPM_P1;HPM_P2
2022/11/24 00:01:17;;;;;;;2.17;0.80;;;;;;;;;;5113335;27;20384;-84
2022/11/24 00:03:44;;;;;;;1.30;0.80;;;;;;;;;;5113954;27;20376;-84
2022/11/24 00:06:11;;;;;;;1.85;0.93;;;;;;;;;;5113054;27;20416;-84
2022/11/24 00:08:38;;;;;;;2.08;0.70;;;;;;;;;;5133045;27;20374;-84
2022/11/24 00:11:08;;;;;;;1.55;0.80;;;;;;;;;;5116285;27;20729;-84
2022/11/24 00:13:34;;;;;;;1.20;0.60;;;;;;;;;;5132747;27;20430;-84
2022/11/24 00:16:04;;;;;;;1.52;0.60;;;;;;;;;;5135201;27;20701;-85
2022/11/24 00:18:30;;;;;;;1.92;0.70;;;;;;;;;;5116156;27;20793;-85
2022/11/24 00:20:56;;;;;;;2.63;0.73;;;;;;;;;;5134801;27;20458;-84
2022/11/24 00:23:22;;;;;;;3.28;0.80;;;;;;;;;;5116676;27;20383;-84
2022/11/24 00:25:48;;;;;;;1.50;0.90;;;;;;;;;;5134561;27;20378;-84
2022/11/24 00:28:14;;;;;;;2.00;0.80;;;;;;;;;;5116518;27;20940;-84
2022/11/24 00:30:40;;;;;;;1.98;0.70;;;;;;;;;;5134433;27;20383;-85
2022/11/24 00:33:06;;;;;;;1.40;0.75;;;;;;;;;;5115973;27;20444;-84
2022/11/24 00:35:32;;;;;;;1.13;0.50;;;;;;;;;;5134535;27;20848;-84
2022/11/24 00:37:58;;;;;;;1.83;0.80;;;;;;;;;;5134440;27;20431;-84
2022/11/24 00:40:24;;;;;;;1.77;0.85;;;;;;;;;;5134408;27;20406;-85
2022/11/24 00:42:50;;;;;;;1.70;0.80;;;;;;;;;;5120851;27;20465;-84
2022/11/24 00:45:16;;;;;;;3.85;0.90;;;;;;;;;;5132385;27;20383;-84
2022/11/24 00:47:42;;;;;;;2.28;1.15;;;;;;;;;;5116580;28;20429;-84
2022/11/24 00:50:08;;;;;;;2.83;1.52;;;;;;;;;;5119845;28;20380;-84
2022/11/24 00:52:34;;;;;;;3.30;1.80;;;;;;;;;;5122735;27;20937;-84
2022/11/24 00:55:00;;;;;;;3.55;2.08;;;;;;;;;;5151976;27;20488;-84
2022/11/24 00:57:26;;;;;;;3.28;2.38;;;;;;;;;;5119751;28;20403;-83
2022/11/24 00:59:52;;;;;;;3.17;2.03;;;;;;;;;;5115337;28;20372;-84
2022/11/24 01:02:18;;;;;;;2.65;2.10;;;;;;;;;;5114895;28;20381;-85
2022/11/24 01:04:44;;;;;;;3.60;2.30;;;;;;;;;;5114686;28;20380;-84
2022/11/24 01:07:10;;;;;;;3.92;2.50;;;;;;;;;;5125261;27;20393;-84
2022/11/24 01:09:36;;;;;;;4.72;2.72;;;;;;;;;;5112096;28;20745;-85
2022/11/24 01:12:03;;;;;;;3.22;2.58;;;;;;;;;;5130426;27;20777;-84
2022/11/24 01:14:29;;;;;;;3.45;2.63;;;;;;;;;;5134265;27;20399;-84
2022/11/24 01:16:55;;;;;;;5.22;2.80;;;;;;;;;;5133967;27;20402;-84
2022/11/24 01:19:21;;;;;;;3.83;2.83;;;;;;;;;;5115971;27;20398;-84
2022/11/24 01:21:47;;;;;;;4.25;3.10;;;;;;;;;;5133866;27;20409;-84
2022/11/24 01:24:13;;;;;;;5.75;3.70;;;;;;;;;;5133783;27;20383;-85
2022/11/24 01:26:39;;;;;;;6.07;3.85;;;;;;;;;;5124592;27;20373;-84
2022/11/24 01:29:05;;;;;;;5.05;4.20;;;;;;;;;;5133758;27;20457;-85
2022/11/24 01:31:31;;;;;;;4.88;4.00;;;;;;;;;;5133513;27;20844;-84
2022/11/24 01:33:57;;;;;;;6.07;4.07;;;;;;;;;;5133411;27;20489;-85
2022/11/24 01:36:24;;;;;;;5.65;4.07;;;;;;;;;;5133665;27;20363;-84
2022/11/24 01:38:50;;;;;;;7.05;4.57;;;;;;;;;;5133375;27;20378;-84
2022/11/24 01:41:18;;;;;;;5.25;4.22;;;;;;;;;;5132405;27;20381;-85
2022/11/24 01:43:44;;;;;;;5.97;4.30;;;;;;;;;;5133362;27;20377;-84
2022/11/24 01:46:15;;;;;;;6.20;4.20;;;;;;;;;;5133156;27;20395;-84
2022/11/24 01:48:43;;;;;;;5.37;4.60;;;;;;;;;;5133356;27;20880;-85
2022/11/24 01:51:12;;;;;;;6.53;4.68;;;;;;;;;;5132459;27;20907;-84
2022/11/24 01:53:39;;;;;;;6.38;4.72;;;;;;;;;;5130736;27;20510;-85
2022/11/24 01:56:06;;;;;;;6.43;3.92;;;;;;;;;;5132270;27;20382;-85
2022/11/24 01:58:33;;;;;;;5.70;4.40;;;;;;;;;;5133266;27;20406;-84
2022/11/24 02:00:59;;;;;;;6.13;4.22;;;;;;;;;;5133187;27;20382;-84
2022/11/24 02:03:28;;;;;;;4.82;4.22;;;;;;;;;;5133940;27;20449;-85
2022/11/24 02:06:03;;;;;;;5.70;4.75;;;;;;;;;;5137549;27;20375;-84
2022/11/24 02:08:33;;;;;;;5.53;4.90;;;;;;;;;;5137363;27;20383;-84
2022/11/24 02:11:00;;;;;;;5.45;4.75;;;;;;;;;;5132729;27;20385;-85
2022/11/24 02:13:26;;;;;;;5.90;4.55;;;;;;;;;;5117824;27;20529;-84
2022/11/24 02:15:53;;;;;;;8.00;4.70;;;;;;;;;;5137459;27;20495;-85
2022/11/24 02:18:19;;;;;;;6.53;4.70;;;;;;;;;;5137090;27;20378;-85
2022/11/24 02:20:45;;;;;;;5.95;5.20;;;;;;;;;;5136992;27;20404;-84
2022/11/24 02:23:10;;;;;;;9.18;5.13;;;;;;;;;;5136941;27;20859;-84
2022/11/24 02:25:56;;;;;;;5.32;4.82;;;;;;;;;;5135376;27;20396;-85
2022/11/24 02:28:22;;;;;;;7.15;5.00;;;;;;;;;;5114028;27;20882;-84
2022/11/24 02:30:49;;;;;;;7.77;5.00;;;;;;;;;;5136951;27;20410;-84
2022/11/24 02:33:16;;;;;;;7.72;5.00;;;;;;;;;;5118228;27;20398;-84
2022/11/24 02:35:42;;;;;;;8.27;5.07;;;;;;;;;;5118711;27;20378;-85
2022/11/24 02:38:12;;;;;;;8.27;5.22;;;;;;;;;;5136863;27;20428;-84
2022/11/24 02:40:39;;;;;;;10.15;5.30;;;;;;;;;;5136372;27;20411;-85
2022/11/24 02:43:09;;;;;;;9.25;5.18;;;;;;;;;;5136912;27;20465;-84
2022/11/24 02:45:35;;;;;;;7.37;4.70;;;;;;;;;;5136407;27;20461;-84
2022/11/24 02:48:01;;;;;;;6.60;4.30;;;;;;;;;;5117830;27;20422;-84
2022/11/24 02:50:27;;;;;;;7.30;4.35;;;;;;;;;;5115398;27;20399;-84
2022/11/24 02:52:53;;;;;;;7.13;4.18;;;;;;;;;;5136829;27;20404;-85
2022/11/24 02:55:19;;;;;;;5.97;4.30;;;;;;;;;;5126484;27;20744;-85
2022/11/24 02:57:45;;;;;;;8.13;3.92;;;;;;;;;;5136895;27;20367;-84
2022/11/24 03:00:11;;;;;;;9.13;3.73;;;;;;;;;;5136037;27;20725;-85
2022/11/24 03:02:37;;;;;;;6.68;3.97;;;;;;;;;;5136161;27;20380;-84
2022/11/24 03:05:04;;;;;;;7.32;4.18;;;;;;;;;;5136213;27;20446;-84
2022/11/24 03:07:29;;;;;;;8.13;3.80;;;;;;;;;;5117759;27;20795;-85
2022/11/24 03:09:55;;;;;;;6.03;3.53;;;;;;;;;;5135913;27;20417;-85
2022/11/24 03:12:21;;;;;;;6.68;3.15;;;;;;;;;;5136146;27;20451;-85
2022/11/24 03:14:47;;;;;;;8.47;4.00;;;;;;;;;;5134653;27;20517;-84
2022/11/24 03:17:13;;;;;;;9.57;4.30;;;;;;;;;;5135794;27;20926;-84
2022/11/24 03:19:39;;;;;;;9.63;3.78;;;;;;;;;;5135980;27;20427;-85
2022/11/24 03:22:05;;;;;;;8.55;3.42;;;;;;;;;;5135848;27;20394;-85
2022/11/24 03:24:31;;;;;;;8.00;3.28;;;;;;;;;;5136368;27;20844;-85
2022/11/24 03:26:57;;;;;;;7.17;3.13;;;;;;;;;;5135703;27;20494;-85
2022/11/24 03:29:23;;;;;;;5.93;3.20;;;;;;;;;;5135765;27;20382;-84
2022/11/24 03:31:49;;;;;;;6.38;3.10;;;;;;;;;;5135585;27;20362;-86
2022/11/24 03:34:15;;;;;;;9.27;3.50;;;;;;;;;;5135636;27;20403;-85
2022/11/24 03:36:41;;;;;;;6.90;3.30;;;;;;;;;;5135653;27;20375;-84
2022/11/24 03:39:07;;;;;;;7.47;3.50;;;;;;;;;;5135575;27;20375;-84
2022/11/24 03:41:33;;;;;;;8.35;3.80;;;;;;;;;;5135113;27;20435;-84
2022/11/24 03:43:59;;;;;;;8.50;3.67;;;;;;;;;;5135454;27;20735;-84
2022/11/24 03:46:25;;;;;;;7.07;3.55;;;;;;;;;;5135274;27;20390;-85
2022/11/24 03:48:51;;;;;;;7.05;3.35;;;;;;;;;;5135227;27;20469;-85
2022/11/24 03:51:17;;;;;;;8.82;3.33;;;;;;;;;;5116717;27;20443;-84
2022/11/24 03:53:43;;;;;;;10.68;3.88;;;;;;;;;;5135280;27;20430;-84
2022/11/24 03:56:09;;;;;;;10.05;4.05;;;;;;;;;;5131937;27;20378;-85
2022/11/24 03:58:35;;;;;;;7.95;3.63;;;;;;;;;;5131840;27;20757;-85
2022/11/24 04:01:02;;;;;;;8.13;3.72;;;;;;;;;;5135099;27;20363;-85
2022/11/24 04:03:28;;;;;;;7.20;4.05;;;;;;;;;;5135010;27;20371;-85
2022/11/24 04:05:54;;;;;;;8.90;3.80;;;;;;;;;;5135074;27;20367;-84
2022/11/24 04:08:20;;;;;;;7.30;3.85;;;;;;;;;;5116577;27;20736;-84
2022/11/24 04:10:50;;;;;;;9.25;4.15;;;;;;;;;;5116603;27;20875;-85
2022/11/24 04:13:17;;;;;;;7.35;3.95;;;;;;;;;;5131434;27;20478;-84
2022/11/24 04:15:43;;;;;;;7.97;3.72;;;;;;;;;;5137236;27;20378;-84
2022/11/24 04:18:10;;;;;;;6.77;4.00;;;;;;;;;;5122382;27;20399;-85
2022/11/24 04:20:36;;;;;;;9.20;4.20;;;;;;;;;;5141467;27;20385;-84
2022/11/24 04:23:02;;;;;;;10.35;4.30;;;;;;;;;;5146483;27;20375;-85
2022/11/24 04:25:28;;;;;;;9.73;4.00;;;;;;;;;;5142966;27;20412;-84
2022/11/24 04:27:54;;;;;;;8.15;3.90;;;;;;;;;;5128334;27;20382;-84
2022/11/24 04:30:21;;;;;;;7.75;4.22;;;;;;;;;;5136382;27;20456;-85
2022/11/24 04:32:47;;;;;;;9.82;5.10;;;;;;;;;;5135572;27;20382;-84
2022/11/24 04:35:13;;;;;;;8.65;4.20;;;;;;;;;;5135427;27;20454;-85
2022/11/24 04:37:39;;;;;;;9.80;4.60;;;;;;;;;;5135205;27;20469;-84
2022/11/24 04:40:06;;;;;;;9.75;4.20;;;;;;;;;;5134944;27;20377;-84
2022/11/24 04:42:32;;;;;;;10.00;4.97;;;;;;;;;;5134601;27;20727;-85
2022/11/24 04:44:58;;;;;;;8.73;4.00;;;;;;;;;;5134940;27;20366;-85
2022/11/24 04:47:25;;;;;;;9.13;4.07;;;;;;;;;;5134179;27;20383;-85
2022/11/24 04:49:51;;;;;;;9.95;4.25;;;;;;;;;;5137061;27;20378;-84
2022/11/24 04:52:18;;;;;;;9.68;3.85;;;;;;;;;;5135832;27;20370;-85
2022/11/24 04:54:44;;;;;;;5.95;3.50;;;;;;;;;;5115682;27;20768;-84
2022/11/24 04:57:24;;;;;;;7.72;3.78;;;;;;;;;;5134146;27;20385;-85
2022/11/24 04:59:51;;;;;;;7.90;3.83;;;;;;;;;;5133933;27;20461;-85
2022/11/24 05:02:17;;;;;;;8.00;3.90;;;;;;;;;;5133758;27;20374;-84
2022/11/24 05:04:43;;;;;;;7.57;3.60;;;;;;;;;;5133973;27;20371;-84
2022/11/24 05:07:13;;;;;;;7.32;3.85;;;;;;;;;;5133310;27;20378;-85
2022/11/24 05:10:33;;;;;;;10.32;4.10;;;;;;;;;;5133868;27;20394;-85
2022/11/24 05:12:29;;;;;;;7.18;3.63;;;;;;;;;;5133427;27;20452;-84
2022/11/24 05:14:55;;;;;;;6.68;3.40;;;;;;;;;;5133713;27;20450;-84
2022/11/24 05:17:21;;;;;;;6.43;3.60;;;;;;;;;;5132796;27;20383;-85
2022/11/24 05:19:47;;;;;;;6.95;3.28;;;;;;;;;;5134373;27;20366;-85
2022/11/24 05:22:13;;;;;;;8.33;3.60;;;;;;;;;;5133505;27;20927;-84
2022/11/24 05:24:39;;;;;;;7.63;3.40;;;;;;;;;;5115601;27;20375;-85
2022/11/24 05:27:05;;;;;;;5.75;3.05;;;;;;;;;;5129037;27;20428;-84
2022/11/24 05:29:31;;;;;;;5.78;2.88;;;;;;;;;;5112857;27;20902;-84
2022/11/24 05:31:57;;;;;;;5.07;3.00;;;;;;;;;;5114917;27;20367;-85
2022/11/24 05:34:23;;;;;;;6.57;2.83;;;;;;;;;;5132461;27;20743;-85
2022/11/24 05:36:53;;;;;;;6.07;3.30;;;;;;;;;;5133194;27;20370;-86
2022/11/24 05:39:19;;;;;;;5.78;2.58;;;;;;;;;;5121954;27;20499;-85
2022/11/24 05:41:45;;;;;;;5.63;2.42;;;;;;;;;;5117789;27;20426;-85
2022/11/24 05:44:11;;;;;;;4.57;2.45;;;;;;;;;;5117786;27;20399;-84
2022/11/24 05:46:37;;;;;;;6.60;2.55;;;;;;;;;;5122238;27;20868;-85
2022/11/24 05:49:03;;;;;;;5.63;2.78;;;;;;;;;;5122979;27;20391;-84
2022/11/24 05:51:30;;;;;;;3.08;2.20;;;;;;;;;;5096223;28;20376;-83
2022/11/24 05:53:56;;;;;;;7.43;2.87;;;;;;;;;;5097490;28;20459;-84
2022/11/24 05:56:22;;;;;;;5.68;2.75;;;;;;;;;;5114521;27;20463;-85
2022/11/24 05:58:48;;;;;;;6.60;2.67;;;;;;;;;;5111700;27;20372;-84
2022/11/24 06:01:17;;;;;;;6.63;2.53;;;;;;;;;;5127110;27;20387;-84
2022/11/24 06:03:43;;;;;;;7.13;2.55;;;;;;;;;;5122536;27;20372;-82
2022/11/24 06:06:10;;;;;;;8.02;2.65;;;;;;;;;;5132889;27;20378;-83
2022/11/24 06:08:36;;;;;;;5.97;2.63;;;;;;;;;;5133394;27;20379;-85
2022/11/24 06:11:15;;;;;;;4.43;2.00;;;;;;;;;;5133147;27;20391;-85
2022/11/24 06:13:42;;;;;;;7.70;2.20;;;;;;;;;;5133018;27;20451;-86
2022/11/24 06:16:09;;;;;;;4.75;2.05;;;;;;;;;;5132550;27;20378;-85
2022/11/24 06:18:35;;;;;;;6.53;2.15;;;;;;;;;;5133011;27;20367;-85
2022/11/24 06:21:05;;;;;;;5.97;2.43;;;;;;;;;;5132472;27;20369;-85
2022/11/24 06:23:31;;;;;;;6.95;2.55;;;;;;;;;;5132225;27;20431;-85
2022/11/24 06:25:57;;;;;;;5.95;2.53;;;;;;;;;;5113375;28;20402;-85
2022/11/24 06:28:24;;;;;;;6.30;2.35;;;;;;;;;;5119739;27;20368;-84
2022/11/24 06:30:50;;;;;;;4.43;2.10;;;;;;;;;;5132422;27;20879;-84
2022/11/24 06:33:16;;;;;;;6.30;2.60;;;;;;;;;;5120731;27;20412;-84
2022/11/24 06:35:42;;;;;;;4.50;2.15;;;;;;;;;;5106933;28;20826;-84
2022/11/24 06:38:08;;;;;;;3.30;1.98;;;;;;;;;;5104824;28;20428;-85
2022/11/24 06:40:34;;;;;;;6.20;2.38;;;;;;;;;;5125306;27;20391;-86
2022/11/24 06:43:00;;;;;;;3.97;2.10;;;;;;;;;;5121683;27;20373;-85
2022/11/24 06:45:26;;;;;;;4.65;1.95;;;;;;;;;;5111717;27;20816;-85
2022/11/24 06:47:55;;;;;;;5.43;2.20;;;;;;;;;;5132446;27;20375;-85
2022/11/24 06:50:22;;;;;;;3.78;1.80;;;;;;;;;;5136464;27;20396;-86
2022/11/24 06:52:48;;;;;;;3.43;2.10;;;;;;;;;;5134280;27;20436;-86
2022/11/24 06:55:14;;;;;;;4.53;2.10;;;;;;;;;;5135996;27;20410;-85
2022/11/24 06:57:40;;;;;;;6.53;2.15;;;;;;;;;;5136290;27;20413;-86
2022/11/24 07:00:07;;;;;;;3.50;1.80;;;;;;;;;;5136253;27;20382;-87
2022/11/24 07:02:33;;;;;;;5.05;1.67;;;;;;;;;;5133599;27;20390;-84
2022/11/24 07:04:59;;;;;;;5.55;2.17;;;;;;;;;;5134713;27;20386;-84
2022/11/24 07:07:25;;;;;;;6.07;2.08;;;;;;;;;;5135275;27;20406;-84
2022/11/24 07:09:51;;;;;;;6.35;1.88;;;;;;;;;;5134893;27;20408;-84
2022/11/24 07:12:17;;;;;;;5.95;1.70;;;;;;;;;;5132481;27;20390;-84
2022/11/24 07:14:43;;;;;;;6.85;2.30;;;;;;;;;;5133197;27;20906;-84
2022/11/24 07:17:09;;;;;;;8.43;3.50;;;;;;;;;;5135013;27;20463;-83
2022/11/24 07:19:35;;;;;;;5.70;3.63;;;;;;;;;;5134786;27;20387;-83
2022/11/24 07:22:01;;;;;;;7.13;3.90;;;;;;;;;;5134996;27;20454;-84
2022/11/24 07:24:27;;;;;;;7.22;2.90;;;;;;;;;;5135029;27;20371;-84
2022/11/24 07:26:53;;;;;;;6.22;2.60;;;;;;;;;;5134881;27;20442;-84
2022/11/24 07:29:19;;;;;;;8.02;4.07;;;;;;;;;;5134842;27;20371;-84
2022/11/24 07:31:45;;;;;;;7.10;2.93;;;;;;;;;;5116487;27;20454;-83
2022/11/24 07:34:13;;;;;;;6.85;2.50;;;;;;;;;;5116308;27;20405;-84
2022/11/24 07:36:43;;;;;;;3.88;2.22;;;;;;;;;;5130278;27;20773;-85
2022/11/24 07:39:09;;;;;;;5.82;2.38;;;;;;;;;;5134701;27;20739;-85
2022/11/24 07:41:35;;;;;;;5.68;2.75;;;;;;;;;;5138598;27;20854;-84
2022/11/24 07:44:01;;;;;;;5.60;2.38;;;;;;;;;;5141468;27;20417;-85
2022/11/24 07:46:27;;;;;;;5.10;2.83;;;;;;;;;;5136792;27;20473;-85
2022/11/24 07:48:53;;;;;;;6.28;2.90;;;;;;;;;;5134193;27;20378;-85
2022/11/24 07:51:19;;;;;;;5.70;2.05;;;;;;;;;;5147030;27;20457;-85
2022/11/24 07:53:45;;;;;;;6.20;2.08;;;;;;;;;;5129106;27;20422;-85
2022/11/24 07:56:12;;;;;;;5.72;2.03;;;;;;;;;;5151576;27;20375;-84
2022/11/24 07:58:38;;;;;;;6.50;2.17;;;;;;;;;;5148192;27;20398;-84
2022/11/24 08:01:14;;;;;;;5.05;1.88;;;;;;;;;;5143715;27;20375;-84
2022/11/24 08:03:40;;;;;;;5.40;1.92;;;;;;;;;;5138353;27;20454;-84
2022/11/24 08:06:06;;;;;;;6.88;2.15;;;;;;;;;;5134222;27;20390;-85
2022/11/24 08:08:32;;;;;;;6.70;2.30;;;;;;;;;;5135638;27;20400;-84
2022/11/24 08:11:03;;;;;;;7.43;2.17;;;;;;;;;;5135226;27;20427;-83
2022/11/24 08:13:29;;;;;;;7.13;2.40;;;;;;;;;;5134910;27;20879;-83
2022/11/24 08:15:55;;;;;;;5.13;1.77;;;;;;;;;;5119950;27;20376;-84
2022/11/24 08:18:23;;;;;;;8.77;2.42;;;;;;;;;;5118284;27;20384;-82
2022/11/24 08:20:49;;;;;;;8.10;2.67;;;;;;;;;;5115819;27;20376;-82
2022/11/24 08:23:15;;;;;;;10.98;2.45;;;;;;;;;;5132695;27;20863;-82
2022/11/24 08:25:41;;;;;;;9.53;2.40;;;;;;;;;;5134816;27;20385;-82
2022/11/24 08:28:07;;;;;;;7.82;2.53;;;;;;;;;;5134843;27;20451;-83
2022/11/24 08:30:33;;;;;;;9.00;2.30;;;;;;;;;;5134588;27;20367;-84
2022/11/24 08:32:59;;;;;;;9.65;2.85;;;;;;;;;;5134384;27;20757;-82
2022/11/24 08:35:25;;;;;;;9.10;2.42;;;;;;;;;;5134635;27;20371;-82
2022/11/24 08:37:51;;;;;;;7.20;2.40;;;;;;;;;;5134645;27;20370;-82
2022/11/24 08:40:17;;;;;;;6.72;2.15;;;;;;;;;;5134474;27;20366;-82
2022/11/24 08:42:43;;;;;;;6.35;2.33;;;;;;;;;;5134512;27;20371;-82
2022/11/24 08:45:10;;;;;;;5.32;2.13;;;;;;;;;;5134205;27;20374;-82
2022/11/24 08:47:36;;;;;;;4.53;1.77;;;;;;;;;;5139938;27;20373;-84
2022/11/24 08:50:02;;;;;;;6.88;1.45;;;;;;;;;;5127673;27;20384;-84
2022/11/24 08:52:28;;;;;;;7.20;1.90;;;;;;;;;;5113543;28;20376;-83
2022/11/24 08:54:54;;;;;;;4.90;1.60;;;;;;;;;;5113570;28;20807;-85
2022/11/24 08:57:20;;;;;;;4.78;1.88;;;;;;;;;;5112452;28;20880;-83
2022/11/24 08:59:46;;;;;;;5.43;1.50;;;;;;;;;;5113867;28;20389;-82
2022/11/24 09:02:12;;;;;;;5.43;1.60;;;;;;;;;;5112231;28;20803;-82
2022/11/24 09:04:39;;;;;;;4.57;1.58;;;;;;;;;;5119951;27;20747;-82
2022/11/24 09:07:05;;;;;;;6.07;1.98;;;;;;;;;;5132888;27;20449;-83
2022/11/24 09:09:31;;;;;;;4.50;1.90;;;;;;;;;;5123275;27;20419;-83
2022/11/24 09:11:57;;;;;;;3.85;1.83;;;;;;;;;;5130763;27;20431;-82
2022/11/24 09:14:23;;;;;;;7.10;2.50;;;;;;;;;;5126962;27;20451;-84
2022/11/24 09:16:49;;;;;;;7.47;2.55;;;;;;;;;;5133615;27;20378;-83
2022/11/24 09:19:15;;;;;;;6.32;2.20;;;;;;;;;;5133150;27;20375;-83
2022/11/24 09:21:41;;;;;;;4.13;1.90;;;;;;;;;;5133632;27;20770;-83
2022/11/24 09:24:07;;;;;;;6.35;2.30;;;;;;;;;;5133679;27;20377;-83
2022/11/24 09:26:34;;;;;;;5.53;2.30;;;;;;;;;;5133558;27;20374;-83
2022/11/24 09:29:01;;;;;;;5.18;2.30;;;;;;;;;;5133716;27;20411;-83
2022/11/24 09:31:28;;;;;;;6.15;2.17;;;;;;;;;;5115015;27;20454;-82
2022/11/24 09:33:55;;;;;;;7.40;2.45;;;;;;;;;;5133280;27;20401;-82
2022/11/24 09:36:21;;;;;;;5.72;1.90;;;;;;;;;;5133534;27;20382;-82
2022/11/24 09:38:47;;;;;;;4.63;2.15;;;;;;;;;;5133299;27;20374;-82
2022/11/24 09:41:16;;;;;;;5.97;2.00;;;;;;;;;;5133184;27;20382;-81
2022/11/24 09:43:50;;;;;;;5.28;2.15;;;;;;;;;;5133228;27;20379;-81
2022/11/24 09:46:21;;;;;;;8.40;2.70;;;;;;;;;;5133354;27;20398;-81
2022/11/24 09:48:49;;;;;;;6.15;2.50;;;;;;;;;;5132990;27;20371;-82
2022/11/24 09:51:15;;;;;;;6.85;2.58;;;;;;;;;;5108094;28;20458;-82
2022/11/24 09:53:47;;;;;;;8.00;2.33;;;;;;;;;;5128301;27;20405;-83
2022/11/24 09:56:22;;;;;;;10.10;2.63;;;;;;;;;;5129747;27;20414;-81
2022/11/24 09:58:50;;;;;;;6.78;2.33;;;;;;;;;;5109132;27;20887;-80
2022/11/24 10:01:25;;;;;;;7.70;2.63;;;;;;;;;;5130857;27;20871;-80
2022/11/24 10:03:52;;;;;;;7.63;2.17;;;;;;;;;;5112264;27;20430;-80
2022/11/24 10:06:31;;;;;;;6.97;2.00;;;;;;;;;;5132928;27;20855;-80
2022/11/24 10:09:06;;;;;;;5.72;2.10;;;;;;;;;;5123730;27;20380;-80
2022/11/24 10:11:42;;;;;;;6.13;1.90;;;;;;;;;;5112656;27;20380;-80
2022/11/24 10:14:17;;;;;;;5.05;1.85;;;;;;;;;;5128193;27;20399;-80
2022/11/24 10:17:22;;;;;;;4.68;1.58;;;;;;;;;;5131525;27;20371;-80
2022/11/24 10:20:08;;;;;;;5.25;1.92;;;;;;;;;;5029333;28;20445;-81
2022/11/24 10:22:52;;;;;;;5.00;1.70;;;;;;;;;;5029448;28;20470;-80
2022/11/24 10:25:25;;;;;;;5.85;2.08;;;;;;;;;;5008026;28;20534;-80
2022/11/24 10:27:58;;;;;;;5.50;1.58;;;;;;;;;;5026607;28;20398;-80
2022/11/24 10:30:28;;;;;;;5.22;1.90;;;;;;;;;;5033430;28;20403;-81
2022/11/24 10:32:57;;;;;;;4.20;1.60;;;;;;;;;;5033521;28;20449;-81
2022/11/24 10:35:44;;;;;;;6.30;1.60;;;;;;;;;;5033719;28;20441;-81
2022/11/24 10:38:25;;;;;;;6.38;1.45;;;;;;;;;;5017218;28;20484;-81
2022/11/24 10:40:56;;;;;;;7.18;2.05;;;;;;;;;;5025889;28;20466;-80
2022/11/24 10:43:25;;;;;;;3.57;1.30;;;;;;;;;;5025076;28;20400;-80
2022/11/24 10:45:51;;;;;;;4.20;1.67;;;;;;;;;;5034040;28;20406;-80
2022/11/24 10:48:20;;;;;;;5.88;1.45;;;;;;;;;;5033374;28;20404;-80
2022/11/24 10:50:46;;;;;;;5.32;1.77;;;;;;;;;;5095133;27;20386;-80
2022/11/24 10:53:12;;;;;;;4.03;1.63;;;;;;;;;;5136329;27;20375;-81
2022/11/24 10:55:56;;;;;;;4.28;1.70;;;;;;;;;;5136387;27;20731;-81
2022/11/24 10:58:23;;;;;;;4.07;1.50;;;;;;;;;;5117949;27;20721;-81
2022/11/24 11:00:49;;;;;;;5.00;1.85;;;;;;;;;;5136188;27;20367;-81
2022/11/24 11:03:17;;;;;;;5.50;1.50;;;;;;;;;;5136407;27;20370;-80
2022/11/24 11:05:47;;;;;;;3.33;1.40;;;;;;;;;;5117562;27;20408;-81
2022/11/24 11:08:13;;;;;;;4.70;1.50;;;;;;;;;;5130056;27;20376;-81
2022/11/24 11:10:39;;;;;;;5.13;1.70;;;;;;;;;;5128729;27;20494;-80
2022/11/24 11:13:19;;;;;;;4.25;1.98;;;;;;;;;;5133590;27;20390;-80
2022/11/24 11:15:45;;;;;;;4.65;1.63;;;;;;;;;;5136019;27;20359;-81
2022/11/24 11:18:15;;;;;;;5.43;1.95;;;;;;;;;;5135874;27;20431;-80
2022/11/24 11:20:48;;;;;;;4.82;1.70;;;;;;;;;;5138329;27;20423;-81
2022/11/24 11:23:16;;;;;;;4.40;1.63;;;;;;;;;;5140260;27;20374;-81
2022/11/24 11:25:42;;;;;;;4.85;1.85;;;;;;;;;;5141789;27;20374;-81
2022/11/24 11:28:21;;;;;;;4.57;1.65;;;;;;;;;;5151476;27;20443;-81
2022/11/24 11:30:58;;;;;;;6.63;1.90;;;;;;;;;;5149651;27;21059;-81
2022/11/24 11:33:28;;;;;;;5.63;1.48;;;;;;;;;;5142711;27;20485;-81
2022/11/24 11:35:54;;;;;;;5.32;1.60;;;;;;;;;;5133668;27;20754;-81
2022/11/24 11:38:20;;;;;;;5.43;1.67;;;;;;;;;;5133716;27;20435;-80
2022/11/24 11:40:49;;;;;;;4.93;1.75;;;;;;;;;;5130764;27;20478;-79
2022/11/24 11:43:22;;;;;;;5.73;1.60;;;;;;;;;;5132148;27;20403;-79
2022/11/24 11:45:50;;;;;;;7.53;1.85;;;;;;;;;;5136220;27;20397;-79
2022/11/24 11:48:26;;;;;;;7.85;2.00;;;;;;;;;;5135097;27;20386;-80
2022/11/24 11:50:56;;;;;;;5.72;1.77;;;;;;;;;;5135619;27;20397;-80
2022/11/24 11:53:27;;;;;;;7.22;1.98;;;;;;;;;;5117557;27;20371;-80
2022/11/24 11:55:53;;;;;;;7.28;3.00;;;;;;;;;;5135386;27;20378;-80
2022/11/24 11:58:19;;;;;;;5.57;2.05;;;;;;;;;;5128806;27;20499;-80
2022/11/24 12:00:48;;;;;;;6.50;1.77;;;;;;;;;;5135290;27;20416;-80
2022/11/24 12:03:14;;;;;;;5.32;1.90;;;;;;;;;;5135361;27;20378;-80
2022/11/24 12:05:55;;;;;;;5.30;1.65;;;;;;;;;;5116794;27;20393;-80
2022/11/24 12:08:30;;;;;;;4.93;1.38;;;;;;;;;;5135167;27;20788;-80
2022/11/24 12:10:59;;;;;;;5.57;1.60;;;;;;;;;;5132823;27;20366;-80
2022/11/24 12:13:42;;;;;;;4.78;1.60;;;;;;;;;;5134986;27;20410;-81
2022/11/24 12:16:08;;;;;;;5.72;1.77;;;;;;;;;;5135032;27;20374;-82
2022/11/24 12:18:48;;;;;;;6.00;1.80;;;;;;;;;;5134494;27;20371;-81
2022/11/24 12:21:21;;;;;;;7.03;2.00;;;;;;;;;;5112829;27;20752;-81
2022/11/24 12:24:02;;;;;;;4.67;1.67;;;;;;;;;;5134819;27;20456;-83
2022/11/24 12:26:34;;;;;;;5.45;1.90;;;;;;;;;;5134680;27;20378;-81
2022/11/24 12:29:06;;;;;;;6.03;2.00;;;;;;;;;;5134468;27;20374;-84
2022/11/24 12:31:35;;;;;;;8.60;2.30;;;;;;;;;;5134549;27;20462;-83
2022/11/24 12:34:01;;;;;;;4.82;2.25;;;;;;;;;;5134395;27;20410;-83
2022/11/24 12:36:50;;;;;;;6.75;2.15;;;;;;;;;;5114767;27;20516;-83
2022/11/24 12:39:25;;;;;;;5.90;2.00;;;;;;;;;;5127967;27;20849;-83
2022/11/24 12:42:01;;;;;;;9.93;2.65;;;;;;;;;;5130019;27;20394;-83
2022/11/24 12:44:34;;;;;;;7.05;2.08;;;;;;;;;;5118027;27;20406;-83
2022/11/24 12:47:16;;;;;;;6.35;2.30;;;;;;;;;;5131080;27;20386;-83
2022/11/24 12:49:42;;;;;;;5.85;2.08;;;;;;;;;;5136174;27;20728;-84
2022/11/24 12:52:16;;;;;;;5.13;2.00;;;;;;;;;;5134198;27;20371;-83
2022/11/24 12:54:42;;;;;;;5.82;1.92;;;;;;;;;;5115699;27;20448;-84
2022/11/24 12:57:17;;;;;;;7.15;1.95;;;;;;;;;;5134143;27;20399;-83
2022/11/24 12:59:50;;;;;;;5.22;2.00;;;;;;;;;;5133663;27;20378;-82
2022/11/24 13:02:34;;;;;;;5.25;1.95;;;;;;;;;;5134331;27;20369;-82
2022/11/24 13:05:06;;;;;;;6.10;1.93;;;;;;;;;;5133885;27;20389;-82
2022/11/24 13:07:45;;;;;;;4.93;1.60;;;;;;;;;;5131368;27;20400;-82
2022/11/24 13:10:23;;;;;;;5.72;2.25;;;;;;;;;;5129926;27;20390;-82
2022/11/24 13:13:03;;;;;;;5.20;1.83;;;;;;;;;;5133683;27;20374;-82
2022/11/24 13:15:30;;;;;;;6.55;1.80;;;;;;;;;;5133811;27;20398;-82
2022/11/24 13:17:56;;;;;;;4.07;1.60;;;;;;;;;;5133760;27;20411;-82
2022/11/24 13:20:30;;;;;;;6.18;1.92;;;;;;;;;;5133552;27;20883;-82
2022/11/24 13:23:03;;;;;;;5.97;2.10;;;;;;;;;;5133689;27;20371;-81
2022/11/24 13:25:30;;;;;;;7.97;1.85;;;;;;;;;;5133615;27;20431;-82
2022/11/24 13:27:59;;;;;;;6.47;2.10;;;;;;;;;;5133556;27;20948;-82
2022/11/24 13:30:34;;;;;;;7.53;2.03;;;;;;;;;;5133276;27;20910;-81
2022/11/24 13:33:12;;;;;;;4.80;1.85;;;;;;;;;;5133529;27;20370;-81
2022/11/24 13:35:39;;;;;;;4.38;1.70;;;;;;;;;;5133449;27;20390;-81
2022/11/24 13:38:23;;;;;;;5.88;2.00;;;;;;;;;;5115082;27;20363;-81
2022/11/24 13:40:49;;;;;;;6.73;2.27;;;;;;;;;;5133536;27;20390;-80
2022/11/24 13:43:15;;;;;;;6.55;2.17;;;;;;;;;;5133566;27;20371;-82
2022/11/24 13:45:45;;;;;;;7.47;2.40;;;;;;;;;;5133456;27;20475;-82
2022/11/24 13:48:20;;;;;;;6.20;2.10;;;;;;;;;;5132781;27;20446;-82
2022/11/24 13:50:49;;;;;;;8.02;1.98;;;;;;;;;;5134679;27;20478;-82
2022/11/24 13:53:33;;;;;;;5.80;1.90;;;;;;;;;;5119182;27;20375;-81
2022/11/24 13:56:00;;;;;;;7.03;2.00;;;;;;;;;;5114902;27;20883;-82
2022/11/24 13:58:29;;;;;;;6.13;1.83;;;;;;;;;;5129613;27;20379;-82
2022/11/24 14:01:05;;;;;;;5.75;1.92;;;;;;;;;;5132987;27;20403;-83
2022/11/24 14:03:34;;;;;;;5.80;2.03;;;;;;;;;;5132888;27;20379;-83
2022/11/24 14:06:00;;;;;;;7.93;2.13;;;;;;;;;;5129917;27;20401;-83
2022/11/24 14:08:31;;;;;;;4.93;1.30;;;;;;;;;;5130186;27;20385;-83
2022/11/24 14:10:57;;;;;;;6.13;1.73;;;;;;;;;;5137195;27;20517;-83
2022/11/24 14:13:23;;;;;;;5.27;1.67;;;;;;;;;;5132968;27;20874;-82
2022/11/24 14:16:03;;;;;;;4.78;1.95;;;;;;;;;;5114958;28;20375;-82
2022/11/24 14:18:33;;;;;;;5.43;1.83;;;;;;;;;;5131698;27;20383;-82
2022/11/24 14:21:00;;;;;;;5.20;2.03;;;;;;;;;;5120223;27;20382;-83
2022/11/24 14:23:26;;;;;;;4.72;2.30;;;;;;;;;;5132903;27;20375;-82
2022/11/24 14:25:52;;;;;;;4.05;1.77;;;;;;;;;;5113182;27;20941;-83
2022/11/24 14:28:23;;;;;;;4.70;1.80;;;;;;;;;;5133039;27;20367;-83
2022/11/24 14:30:49;;;;;;;5.50;1.95;;;;;;;;;;5132066;27;20378;-83
2022/11/24 14:33:17;;;;;;;6.53;2.38;;;;;;;;;;5135267;27;20447;-83
2022/11/24 14:35:44;;;;;;;6.00;2.10;;;;;;;;;;5121528;27;20383;-82
2022/11/24 14:38:11;;;;;;;5.50;2.08;;;;;;;;;;5116667;27;20776;-82
2022/11/24 14:40:40;;;;;;;5.57;2.20;;;;;;;;;;5124947;27;20371;-83
2022/11/24 14:43:15;;;;;;;4.15;2.55;;;;;;;;;;5132779;27;20375;-83
2022/11/24 14:45:48;;;;;;;6.95;3.83;;;;;;;;;;5132734;27;20401;-83
2022/11/24 14:48:16;;;;;;;7.40;3.63;;;;;;;;;;5131663;27;20379;-83
2022/11/24 14:50:42;;;;;;;6.30;2.83;;;;;;;;;;5132788;27;20382;-83